Time;durP1;ratioP1;P1;durP2;ratioP2;P2;SDS_P1;SDS_P2;PMS_P1;PMS_P2;Temp;Humidity;BMP_temperature;BMP_pressure;BME280_temperature;BME280_humidity;BME280_pressure;Samples;Min_cycle;Max_cycle;Signal;HPM_P1;HPM_P2
2022/04/14 00:00:30;;;;;;;28.20;21.25;;;26.40;99.90;;;;;;4712954;30;20052;-65
2022/04/14 00:09:45;;;;;;;30.27;21.48;;;26.50;99.90;;;;;;5194747;27;20397;-64
2022/04/14 00:18:24;;;;;;;36.53;23.67;;;26.40;99.90;;;;;;4856636;29;20041;-62
2022/04/14 00:21:11;;;;;;;31.25;22.85;;;26.40;99.90;;;;;;4856228;29;20458;-62
2022/04/14 00:23:37;;;;;;;34.38;23.83;;;26.30;99.90;;;;;;4834207;29;20410;-63
2022/04/14 00:29:13;;;;;;;37.40;24.33;;;26.40;99.90;;;;;;4837914;29;20053;-62
2022/04/14 00:41:40;;;;;;;35.63;22.58;;;26.40;99.90;;;;;;5072375;27;20405;-63
2022/04/14 00:44:27;;;;;;;29.70;21.25;;;26.50;99.90;;;;;;4991959;28;20052;-62
2022/04/14 00:47:33;;;;;;;28.75;19.25;;;26.50;99.90;;;;;;4950329;29;20035;-64
2022/04/14 00:50:00;;;;;;;25.50;18.42;;;26.60;99.90;;;;;;4832022;29;20030;-65
2022/04/14 01:10:24;;;;;;;29.05;18.17;;;26.70;99.90;;;;;;4793427;27;9395117;-61
2022/04/14 01:13:30;;;;;;;24.25;18.00;;;26.80;99.90;;;;;;5028377;28;20088;-61
2022/04/14 01:19:43;;;;;;;19.88;17.60;;;27.00;99.90;;;;;;4856044;29;20038;-61
2022/04/14 01:25:06;;;;;;;30.38;19.35;;;27.10;99.90;;;;;;4765414;30;20039;-63
2022/04/14 01:27:33;;;;;;;29.70;19.00;;;27.10;99.90;;;;;;4764875;30;20117;-60
2022/04/14 01:30:00;;;;;;;24.92;19.10;;;27.20;99.90;;;;;;4765078;30;20119;-63
2022/04/14 01:32:47;;;;;;;21.60;17.48;;;27.30;99.90;;;;;;4762287;30;20020;-61
2022/04/14 01:45:31;;;;;;;24.67;18.65;;;27.40;99.90;;;;;;4976804;28;20456;-63
2022/04/14 01:48:18;;;;;;;29.90;18.30;;;27.40;99.90;;;;;;4912499;29;20486;-65
2022/04/14 01:51:24;;;;;;;27.25;17.60;;;27.40;99.90;;;;;;4875954;29;20047;-63
2022/04/14 01:53:51;;;;;;;25.08;19.23;;;27.40;99.90;;;;;;4819567;29;20038;-63
2022/04/14 01:56:18;;;;;;;26.65;19.48;;;27.40;99.90;;;;;;4834033;29;20041;-62
2022/04/14 01:59:05;;;;;;;24.75;19.92;;;27.50;99.90;;;;;;4820172;29;20049;-64
2022/04/14 02:12:54;;;;;;;27.45;20.85;;;27.70;99.90;;;;;;5006490;28;20034;-64
2022/04/14 02:18:08;;;;;;;28.10;19.92;;;27.70;99.90;;;;;;4987141;28;20042;-62
2022/04/14 02:24:01;;;;;;;29.15;20.95;;;27.80;99.90;;;;;;4931391;29;20039;-64
2022/04/14 02:26:28;;;;;;;30.20;21.15;;;27.90;99.90;;;;;;4853034;29;20057;-63
2022/04/14 02:28:54;;;;;;;29.73;21.70;;;28.00;99.90;;;;;;4855382;29;20465;-63
2022/04/14 02:32:01;;;;;;;31.70;17.92;;;28.10;99.90;;;;;;4855896;29;20587;-63
2022/04/14 02:46:51;;;;;;;21.73;17.63;;;28.30;99.90;;;;;;4571975;27;15998006;-62
2022/04/14 02:49:17;;;;;;;21.50;17.92;;;28.30;99.90;;;;;;5119508;28;20250;-62
2022/04/14 02:55:10;;;;;;;21.85;16.80;;;28.40;99.90;;;;;;4969926;28;20039;-62
2022/04/14 02:57:57;;;;;;;20.10;15.60;;;28.50;99.90;;;;;;4888617;29;20038;-62
2022/04/14 03:00:23;;;;;;;18.50;14.45;;;28.70;99.90;;;;;;4838074;29;20049;-63
2022/04/14 03:03:10;;;;;;;16.58;14.18;;;28.70;99.90;;;;;;4825862;29;20544;-61
2022/04/14 03:05:56;;;;;;;21.00;14.13;;;28.80;99.90;;;;;;4778203;30;20614;-63
2022/04/14 03:09:03;;;;;;;23.65;12.65;;;28.90;99.90;;;;;;4765874;30;20044;-63
2022/04/14 03:14:17;;;;;;;14.75;12.35;;;29.00;99.90;;;;;;4730462;30;20041;-64
2022/04/14 03:20:18;;;;;;;15.20;13.52;;;28.90;99.90;;;;;;5015421;27;2806616;-63
2022/04/14 03:23:05;;;;;;;14.95;12.02;;;29.00;99.90;;;;;;5109162;28;20098;-63
2022/04/14 03:26:11;;;;;;;14.43;11.68;;;29.00;99.90;;;;;;5007999;28;20369;-63
2022/04/14 03:28:57;;;;;;;15.05;12.15;;;29.10;99.90;;;;;;4911992;29;20064;-63
2022/04/14 03:31:44;;;;;;;16.73;13.27;;;29.10;99.90;;;;;;4856370;29;20045;-63
2022/04/14 03:34:30;;;;;;;14.05;11.05;;;29.10;99.90;;;;;;4782689;30;20071;-62
2022/04/14 03:37:17;;;;;;;14.63;11.65;;;29.20;99.90;;;;;;4729858;30;20045;-62
2022/04/14 03:52:25;;;;;;;17.90;13.32;;;29.20;99.90;;;;;;4950163;29;20251;-62
2022/04/14 03:58:38;;;;;;;18.15;13.55;;;29.30;99.90;;;;;;4833363;29;20062;-62
2022/04/14 04:01:04;;;;;;;20.48;15.18;;;29.30;99.90;;;;;;4730561;30;20049;-63
2022/04/14 04:09:50;;;;;;;21.98;14.73;;;29.50;99.90;;;;;;5087290;27;20451;-62
2022/04/14 04:12:36;;;;;;;21.55;15.43;;;29.60;99.90;;;;;;5070798;28;20120;-64
2022/04/14 04:18:10;;;;;;;17.55;13.75;;;29.60;99.90;;;;;;4970038;28;20035;-63
2022/04/14 04:23:43;;;;;;;21.48;14.80;;;29.70;99.90;;;;;;4913033;29;20032;-62
2022/04/14 04:26:29;;;;;;;26.92;14.82;;;29.70;99.90;;;;;;4912567;29;20045;-65
2022/04/14 04:32:02;;;;;;;22.05;14.43;;;29.90;99.90;;;;;;4838293;29;20097;-62
2022/04/14 04:43:05;;;;;;;17.20;13.43;;;30.10;99.90;;;;;;5176363;27;20405;-63
2022/04/14 04:45:52;;;;;;;21.88;14.40;;;30.20;99.90;;;;;;5173511;27;20022;-64
2022/04/14 04:57:37;;;;;;;19.25;15.45;;;30.80;99.90;;;;;;4888375;29;20487;-63
2022/04/14 05:00:05;;;;;;;23.83;17.23;;;30.90;99.90;;;;;;4887880;29;20069;-63
2022/04/14 05:03:12;;;;;;;24.25;16.77;;;30.90;99.90;;;;;;4883116;29;20185;-64
2022/04/14 05:05:40;;;;;;;21.13;16.08;;;30.90;99.90;;;;;;4849031;29;20049;-64
2022/04/14 05:20:48;;;;;;;25.20;14.68;;;31.20;99.90;;;;;;4912880;29;20036;-64
2022/04/14 05:23:35;;;;;;;18.75;15.05;;;31.20;99.90;;;;;;4855800;29;20042;-66
2022/04/14 05:29:09;;;;;;;26.42;17.05;;;31.30;99.90;;;;;;4826339;29;20099;-62
2022/04/14 05:31:56;;;;;;;29.25;17.25;;;31.30;99.90;;;;;;4808236;29;20046;-61
2022/04/14 05:40:53;;;;;;;18.53;16.13;;;31.60;99.90;;;;;;4949075;27;4935356;-65
2022/04/14 05:46:26;;;;;;;13.27;11.90;;;31.60;99.90;;;;;;4936162;29;20028;-63
2022/04/14 05:51:59;;;;;;;23.38;16.58;;;31.50;99.90;;;;;;4874004;29;20166;-62
2022/04/14 05:57:54;;;;;;;19.55;15.60;;;31.80;99.90;;;;;;4836237;29;20561;-63
2022/04/14 06:00:21;;;;;;;21.60;15.25;;;31.80;99.70;;;;;;4782088;30;20079;-62
2022/04/14 06:13:07;;;;;;;27.25;18.10;;;32.20;97.80;;;;;;5091423;28;20413;-64
2022/04/14 06:15:53;;;;;;;19.20;13.77;;;32.30;95.80;;;;;;5059221;28;20068;-67
2022/04/14 06:19:00;;;;;;;14.88;11.85;;;32.50;95.60;;;;;;4965385;28;20448;-65
2022/04/14 06:21:46;;;;;;;11.70;10.52;;;32.50;96.00;;;;;;4834602;29;20061;-67
2022/04/14 06:24:33;;;;;;;20.48;14.05;;;32.50;94.20;;;;;;4818823;29;20523;-67
2022/04/14 06:26:59;;;;;;;27.45;20.98;;;32.50;95.00;;;;;;4782577;29;20051;-67
2022/04/14 06:46:03;;;;;;;17.42;14.57;;;32.70;92.50;;;;;;5181178;27;20424;-63
2022/04/14 06:48:50;;;;;;;19.95;15.75;;;32.70;92.80;;;;;;5055968;28;20029;-64
2022/04/14 06:51:56;;;;;;;18.75;16.00;;;32.70;92.70;;;;;;4993485;28;20031;-63
2022/04/14 07:13:28;;;;;;;22.38;18.95;;;32.80;91.60;;;;;;4984905;28;20366;-62
2022/04/14 07:19:21;;;;;;;20.13;16.05;;;32.80;91.30;;;;;;4931717;29;20096;-64
2022/04/14 07:21:48;;;;;;;29.80;21.10;;;32.90;92.00;;;;;;4937034;29;20047;-63
2022/04/14 07:24:15;;;;;;;25.48;17.48;;;32.90;91.50;;;;;;4927579;29;20095;-65
2022/04/14 07:30:09;;;;;;;18.02;15.65;;;32.90;90.50;;;;;;4908836;29;20032;-64
2022/04/14 07:41:46;;;;;;;18.13;15.45;;;33.10;90.40;;;;;;5035560;28;20124;-65
2022/04/14 07:44:33;;;;;;;18.65;15.60;;;33.20;91.30;;;;;;4975081;28;20149;-65
2022/04/14 07:47:19;;;;;;;17.27;15.10;;;33.20;90.90;;;;;;4930656;29;20040;-67
2022/04/14 07:50:06;;;;;;;21.02;15.88;;;33.20;90.70;;;;;;4959126;28;20452;-66
2022/04/14 07:52:46;;;;;;;21.67;16.92;;;33.30;89.80;;;;;;4903543;29;20073;-67
2022/04/14 07:58:43;;;;;;;24.85;16.40;;;33.20;88.60;;;;;;4882149;29;20468;-66
2022/04/14 08:22:51;;;;;;;26.73;17.30;;;33.30;87.20;;;;;;4847276;29;20042;-66
2022/04/14 08:57:15;;;;;;;21.77;14.88;;;33.10;84.00;;;;;;5071536;28;20429;-65
2022/04/14 09:02:54;;;;;;;23.25;14.15;;;33.30;87.70;;;;;;5033575;28;20033;-63
2022/04/14 09:05:40;;;;;;;19.65;13.90;;;33.20;87.10;;;;;;4947867;29;20054;-66
2022/04/14 09:27:42;;;;;;;36.83;24.13;;;33.20;90.00;;;;;;4884140;27;6924989;-62
2022/04/14 09:30:09;;;;;;;29.75;18.50;;;33.30;90.20;;;;;;5100778;28;20038;-64
2022/04/14 09:38:59;;;;;;;27.30;22.00;;;33.10;90.30;;;;;;4913903;29;20566;-63
2022/04/14 09:44:34;;;;;;;31.63;24.77;;;33.00;90.90;;;;;;4815891;29;20586;-64
2022/04/14 09:47:41;;;;;;;33.85;25.20;;;33.00;90.90;;;;;;4819350;29;20116;-66
2022/04/14 10:00:00;;;;;;;23.30;20.17;;;32.90;90.80;;;;;;4446201;27;19877251;-61
2022/04/14 10:05:54;;;;;;;37.63;20.48;;;32.80;91.30;;;;;;4912708;29;20040;-63
2022/04/14 10:08:24;;;;;;;29.95;22.38;;;32.80;90.90;;;;;;4856715;29;20435;-66
2022/04/14 10:19:46;;;;;;;32.55;26.92;;;32.60;92.10;;;;;;4819979;29;20526;-63
2022/04/14 10:31:39;;;;;;;39.83;31.23;;;32.50;92.40;;;;;;5098873;27;20441;-65
2022/04/14 10:34:25;;;;;;;43.22;31.38;;;32.50;92.80;;;;;;5028464;28;20037;-63
2022/04/14 10:37:31;;;;;;;45.08;30.88;;;32.40;92.10;;;;;;5008656;28;20042;-65
2022/04/14 10:43:07;;;;;;;37.08;23.25;;;32.00;91.00;;;;;;4909247;29;20035;-64
2022/04/14 10:46:07;;;;;;;37.05;26.08;;;31.80;91.40;;;;;;4883464;29;20071;-65
2022/04/14 10:49:09;;;;;;;34.88;24.25;;;31.60;91.40;;;;;;4836038;29;20137;-66
2022/04/14 11:02:10;;;;;;;35.17;23.92;;;31.10;90.90;;;;;;5005421;28;20046;-62
2022/04/14 11:08:43;;;;;;;37.50;22.40;;;31.00;91.30;;;;;;4837063;29;20050;-65
2022/04/14 11:33:30;;;;;;;34.55;24.00;;;30.40;93.90;;;;;;4802559;29;20031;-64
2022/04/14 11:46:34;;;;;;;33.33;26.13;;;30.40;94.90;;;;;;5181927;27;20417;-62
2022/04/14 11:52:27;;;;;;;45.72;33.75;;;30.60;95.00;;;;;;4976858;28;20408;-63
2022/04/14 11:58:04;;;;;;;36.95;28.25;;;30.40;95.70;;;;;;4876651;29;20049;-61
2022/04/14 12:00:40;;;;;;;40.67;35.10;;;30.30;97.10;;;;;;4841230;29;20046;-62
2022/04/14 12:03:27;;;;;;;54.38;45.63;;;30.20;98.20;;;;;;4842004;29;20048;-62
2022/04/14 12:15:40;;;;;;;54.65;42.47;;;29.70;99.30;;;;;;4986404;28;20081;-61
2022/04/14 12:18:13;;;;;;;22.70;18.20;;;29.60;99.40;;;;;;4930136;29;20114;-62
2022/04/14 12:21:19;;;;;;;20.95;17.30;;;29.60;99.30;;;;;;4933135;29;20122;-61
2022/04/14 12:24:09;;;;;;;22.15;17.73;;;29.50;99.10;;;;;;4891433;29;20037;-65
2022/04/14 12:26:40;;;;;;;22.77;17.83;;;29.50;99.40;;;;;;4836217;29;20054;-61
2022/04/14 12:32:33;;;;;;;32.90;22.50;;;29.40;99.50;;;;;;4745788;30;20131;-60
2022/04/14 12:48:37;;;;;;;27.25;18.70;;;29.30;98.30;;;;;;4891361;29;20316;-63
2022/04/14 12:51:04;;;;;;;39.80;22.58;;;29.30;98.50;;;;;;4852819;29;20048;-61
2022/04/14 12:53:51;;;;;;;38.85;22.38;;;29.40;97.90;;;;;;4855247;29;20169;-61
2022/04/14 13:09:00;;;;;;;22.35;17.27;;;29.40;98.00;;;;;;4731517;27;11355814;-64
2022/04/14 13:12:06;;;;;;;31.20;20.50;;;29.60;99.60;;;;;;5008698;28;20044;-63
2022/04/14 13:14:34;;;;;;;29.13;21.73;;;29.60;99.40;;;;;;4930530;29;20062;-64
2022/04/14 13:17:01;;;;;;;51.80;40.72;;;29.70;99.50;;;;;;4931512;29;20039;-62
2022/04/14 13:19:29;;;;;;;44.42;33.80;;;29.70;99.20;;;;;;4932151;29;20480;-63
2022/04/14 13:22:15;;;;;;;77.10;57.65;;;29.60;99.60;;;;;;4936547;29;20032;-61
2022/04/14 13:25:03;;;;;;;61.67;48.05;;;29.70;99.90;;;;;;4859182;29;20034;-61
2022/04/14 13:30:56;;;;;;;58.35;43.17;;;29.70;99.90;;;;;;4716166;30;20180;-61
2022/04/14 13:48:34;;;;;;;58.25;41.15;;;29.70;99.90;;;;;;5066384;28;20028;-62
2022/04/14 13:53:48;;;;;;;56.65;42.83;;;29.50;99.90;;;;;;5025991;28;20038;-62
2022/04/14 13:56:15;;;;;;;80.00;56.33;;;29.50;99.90;;;;;;5029450;28;20044;-62
2022/04/14 14:20:50;;;;;;;52.00;34.45;;;29.60;99.90;;;;;;5002218;28;20030;-64
2022/04/14 14:23:36;;;;;;;55.03;36.03;;;29.60;99.90;;;;;;4931453;29;20058;-62
2022/04/14 14:29:50;;;;;;;46.10;34.38;;;29.50;99.90;;;;;;4819878;29;20031;-62
2022/04/14 14:32:36;;;;;;;51.35;34.90;;;29.50;99.90;;;;;;4783722;30;20513;-61
2022/04/14 14:35:04;;;;;;;53.63;36.50;;;29.60;99.90;;;;;;4737608;30;20056;-62
2022/04/14 14:40:47;;;;;;;60.80;42.60;;;29.50;99.90;;;;;;5073012;28;20391;-61
2022/04/14 14:43:55;;;;;;;59.40;40.88;;;29.50;99.90;;;;;;5072514;28;20036;-61
2022/04/14 14:52:15;;;;;;;57.72;40.28;;;29.30;99.90;;;;;;4876825;29;20033;-62
2022/04/14 14:54:41;;;;;;;71.38;45.70;;;29.30;99.90;;;;;;4879509;29;20038;-61
2022/04/14 15:00:15;;;;;;;74.32;48.45;;;29.40;99.90;;;;;;4857175;29;20131;-61
2022/04/14 15:02:42;;;;;;;66.63;46.03;;;29.40;99.90;;;;;;4856695;29;20038;-61
2022/04/14 15:05:29;;;;;;;58.78;42.35;;;29.30;99.90;;;;;;4852758;29;20075;-62
2022/04/14 15:08:16;;;;;;;66.72;48.35;;;29.40;99.90;;;;;;4820006;29;20096;-63
2022/04/14 15:20:18;;;;;;;79.65;58.15;;;29.30;99.90;;;;;;4819014;27;8427192;-62
2022/04/14 15:23:05;;;;;;;79.53;53.22;;;29.20;99.90;;;;;;5018467;28;20130;-63
2022/04/14 15:26:12;;;;;;;76.93;51.85;;;29.20;99.90;;;;;;5001937;28;20076;-63
2022/04/14 15:28:38;;;;;;;79.50;52.40;;;29.10;99.90;;;;;;4923387;29;20066;-63
2022/04/14 15:34:31;;;;;;;79.57;54.88;;;29.10;99.90;;;;;;4842638;29;20038;-61
2022/04/14 15:36:58;;;;;;;75.45;52.40;;;29.10;99.90;;;;;;4803487;29;20042;-60
2022/04/14 15:39:24;;;;;;;76.00;52.83;;;29.10;99.90;;;;;;4801580;29;20078;-63
2022/04/14 15:41:51;;;;;;;80.57;52.78;;;29.10;99.90;;;;;;4803597;29;20189;-62
2022/04/14 15:54:34;;;;;;;76.88;50.15;;;29.10;99.90;;;;;;5095944;28;20408;-62
2022/04/14 16:00:28;;;;;;;80.70;52.97;;;29.00;99.90;;;;;;4925805;29;20123;-62
2022/04/14 16:06:21;;;;;;;73.85;53.25;;;29.00;99.90;;;;;;4809502;29;20035;-61
2022/04/14 16:09:07;;;;;;;76.97;50.63;;;28.90;99.90;;;;;;4771138;30;20043;-62
2022/04/14 16:23:38;;;;;;;67.43;48.37;;;28.90;99.90;;;;;;4946553;27;4952224;-63
2022/04/14 16:26:24;;;;;;;62.95;47.20;;;28.80;99.90;;;;;;5104561;28;20028;-62
2022/04/14 16:35:06;;;;;;;63.80;47.47;;;28.80;99.90;;;;;;4874886;29;20021;-63
2022/04/14 16:37:53;;;;;;;69.43;48.72;;;28.80;99.90;;;;;;4800819;29;20070;-64
2022/04/14 16:46:13;;;;;;;77.93;55.10;;;28.70;99.90;;;;;;4654016;30;20113;-63
2022/04/14 16:55:33;;;;;;;91.80;53.47;;;28.60;99.90;;;;;;4610295;31;20391;-62
2022/04/14 16:58:00;;;;;;;81.80;52.17;;;28.50;99.90;;;;;;4651737;30;20039;-62
2022/04/14 17:06:52;;;;;;;90.10;55.83;;;28.60;99.90;;;;;;5051747;28;20778;-62
2022/04/14 17:12:45;;;;;;;88.43;57.72;;;28.60;99.90;;;;;;4885023;29;20033;-63
2022/04/14 17:18:58;;;;;;;83.20;53.15;;;28.60;99.90;;;;;;4804494;29;20034;-63
2022/04/14 17:31:23;;;;;;;99.82;68.00;;;28.60;99.90;;;;;;5123144;27;20453;-63
2022/04/14 17:34:10;;;;;;;84.55;58.67;;;28.60;99.90;;;;;;5007590;28;20535;-61
2022/04/14 17:39:25;;;;;;;91.40;60.80;;;28.50;99.90;;;;;;4958323;28;20035;-63
2022/04/14 17:42:31;;;;;;;76.40;49.40;;;28.50;99.90;;;;;;4956551;28;20038;-63
2022/04/14 17:44:58;;;;;;;66.38;42.65;;;28.40;99.90;;;;;;4853126;29;20033;-63
2022/04/14 17:51:11;;;;;;;46.35;33.28;;;28.40;99.90;;;;;;4849323;29;20044;-63
2022/04/14 17:53:38;;;;;;;45.30;32.78;;;28.30;99.90;;;;;;4782931;29;20044;-62
2022/04/14 17:57:16;;;;;;;43.35;32.22;;;28.30;99.90;;;;;;4783465;30;20594;-62
2022/04/14 17:59:42;;;;;;;54.67;39.78;;;28.30;99.90;;;;;;4823497;29;20050;-63
2022/04/14 18:02:16;;;;;;;59.17;41.20;;;28.40;99.90;;;;;;4884572;28;20077;-62
2022/04/14 18:04:43;;;;;;;58.70;41.03;;;28.40;99.90;;;;;;5047290;28;20039;-63
2022/04/14 18:07:10;;;;;;;57.53;43.40;;;28.40;99.90;;;;;;5089955;28;20381;-64
2022/04/14 18:09:37;;;;;;;56.08;41.20;;;28.50;99.90;;;;;;5089813;28;20380;-64
2022/04/14 18:12:04;;;;;;;64.38;43.88;;;28.50;99.90;;;;;;5089356;28;20082;-63
2022/04/14 18:14:31;;;;;;;66.75;44.65;;;28.40;99.90;;;;;;5089969;28;20027;-64
2022/04/14 18:16:58;;;;;;;69.30;46.35;;;28.40;99.90;;;;;;5090310;28;20009;-63
2022/04/14 18:19:25;;;;;;;56.50;42.35;;;28.40;99.90;;;;;;5090385;28;20031;-63
2022/04/14 18:21:51;;;;;;;60.28;43.53;;;28.40;99.90;;;;;;5093449;28;20073;-65
2022/04/14 18:24:18;;;;;;;55.60;39.47;;;28.40;99.90;;;;;;5082638;28;20029;-64
2022/04/14 18:26:45;;;;;;;52.80;37.63;;;28.30;99.90;;;;;;5086715;28;20016;-65
2022/04/14 18:29:12;;;;;;;47.58;34.90;;;28.30;99.90;;;;;;5089308;28;20662;-64
2022/04/14 18:31:39;;;;;;;47.80;34.17;;;28.30;99.90;;;;;;5089037;28;20504;-63
2022/04/14 18:34:06;;;;;;;46.42;34.58;;;28.30;99.90;;;;;;5088752;28;20036;-63
2022/04/14 18:36:33;;;;;;;43.40;33.78;;;28.30;99.90;;;;;;5089498;28;20024;-65
2022/04/14 18:38:59;;;;;;;44.40;33.58;;;28.30;99.90;;;;;;5089948;28;20464;-65
2022/04/14 18:41:26;;;;;;;47.08;33.97;;;28.30;99.90;;;;;;5083618;28;20062;-65
2022/04/14 18:43:53;;;;;;;43.97;32.88;;;28.30;99.90;;;;;;5076344;28;20031;-66
2022/04/14 18:46:20;;;;;;;40.35;32.22;;;28.20;99.90;;;;;;5075878;28;20035;-63
2022/04/14 18:48:47;;;;;;;47.05;32.95;;;28.20;99.90;;;;;;5076209;28;20107;-66
2022/04/14 18:51:13;;;;;;;44.33;33.40;;;28.20;99.90;;;;;;5076296;28;20503;-66
2022/04/14 18:53:40;;;;;;;42.92;32.85;;;28.20;99.90;;;;;;5076203;28;20492;-61
2022/04/14 18:56:07;;;;;;;51.65;35.47;;;28.30;99.90;;;;;;5075980;28;20024;-65
2022/04/14 18:58:34;;;;;;;39.95;32.90;;;28.30;99.90;;;;;;5072351;28;20047;-65
2022/04/14 19:01:00;;;;;;;43.60;33.42;;;28.30;99.90;;;;;;5070703;28;20389;-62
2022/04/14 19:03:27;;;;;;;49.45;35.10;;;28.30;99.90;;;;;;5055708;28;20191;-65
2022/04/14 19:05:54;;;;;;;42.38;32.75;;;28.30;99.90;;;;;;5056733;28;20112;-66
2022/04/14 19:08:20;;;;;;;41.33;33.28;;;28.30;99.90;;;;;;5055554;28;20492;-64
2022/04/14 19:10:47;;;;;;;45.53;33.75;;;28.30;99.90;;;;;;5055679;28;20029;-65
2022/04/14 19:13:14;;;;;;;42.88;32.42;;;28.30;99.90;;;;;;5056267;28;20025;-65
2022/04/14 19:15:41;;;;;;;41.60;31.77;;;28.30;99.90;;;;;;5056143;28;20024;-66
2022/04/14 19:18:07;;;;;;;40.30;30.05;;;28.30;99.90;;;;;;5056967;28;20035;-63
2022/04/14 19:20:34;;;;;;;37.00;28.80;;;28.20;99.90;;;;;;5056053;28;20025;-64
2022/04/14 19:23:01;;;;;;;39.42;27.52;;;28.20;99.90;;;;;;5055949;28;20428;-65
2022/04/14 19:25:28;;;;;;;34.15;27.05;;;28.20;99.90;;;;;;5064871;28;20560;-62
2022/04/14 19:27:54;;;;;;;37.05;28.50;;;28.20;99.90;;;;;;5076254;28;20060;-63
2022/04/14 19:30:21;;;;;;;38.28;25.65;;;28.20;99.90;;;;;;5075397;28;20512;-66
2022/04/14 19:32:48;;;;;;;36.58;26.20;;;28.20;99.90;;;;;;5075445;28;20467;-64
2022/04/14 19:35:15;;;;;;;32.60;26.67;;;28.20;99.90;;;;;;5075558;28;20073;-65
2022/04/14 19:37:42;;;;;;;36.80;27.35;;;28.20;99.90;;;;;;5075740;28;20048;-63
2022/04/14 19:40:10;;;;;;;37.42;28.92;;;28.20;99.90;;;;;;5057552;28;20028;-65
2022/04/14 19:42:37;;;;;;;39.28;29.38;;;28.30;99.90;;;;;;5055218;28;20108;-66
2022/04/14 19:45:05;;;;;;;38.15;30.98;;;28.30;99.90;;;;;;5064946;28;20036;-63
2022/04/14 19:47:36;;;;;;;37.10;29.92;;;28.30;99.90;;;;;;5074153;28;20595;-63
2022/04/14 19:50:06;;;;;;;47.95;32.42;;;28.40;99.90;;;;;;5074852;28;20082;-63
2022/04/14 19:52:34;;;;;;;40.40;31.63;;;28.30;99.90;;;;;;5073876;28;20047;-64
2022/04/14 19:55:01;;;;;;;40.92;31.45;;;28.30;99.90;;;;;;5073344;28;20025;-64
2022/04/14 19:57:28;;;;;;;40.45;32.50;;;28.30;99.90;;;;;;5067097;28;20024;-64
2022/04/14 19:59:56;;;;;;;38.45;29.90;;;28.30;99.90;;;;;;5062747;28;20059;-62
2022/04/14 20:02:23;;;;;;;43.53;30.60;;;28.30;99.90;;;;;;5074290;28;20032;-63
2022/04/14 20:04:50;;;;;;;37.70;29.33;;;28.20;99.90;;;;;;5074495;28;20032;-66
2022/04/14 20:07:19;;;;;;;39.72;30.35;;;28.20;99.90;;;;;;5074361;28;20370;-64
2022/04/14 20:09:47;;;;;;;37.80;28.92;;;28.20;99.90;;;;;;5063092;28;20029;-64
2022/04/14 20:12:17;;;;;;;35.88;29.38;;;28.20;99.90;;;;;;5054693;28;20426;-67
2022/04/14 20:14:44;;;;;;;37.83;29.83;;;28.20;99.90;;;;;;5054425;28;20031;-63
2022/04/14 20:17:11;;;;;;;40.15;30.63;;;28.20;99.90;;;;;;5055312;28;20028;-64
2022/04/14 20:19:38;;;;;;;42.20;29.88;;;28.20;99.90;;;;;;5054525;28;20029;-64
2022/04/14 20:22:05;;;;;;;46.08;30.77;;;28.10;99.90;;;;;;5054306;28;20127;-64
2022/04/14 20:24:31;;;;;;;40.15;30.67;;;28.20;99.90;;;;;;5068268;28;20024;-63
2022/04/14 20:26:58;;;;;;;42.53;31.52;;;28.20;99.90;;;;;;5058722;28;20021;-64
2022/04/14 20:29:25;;;;;;;40.25;31.75;;;28.30;99.90;;;;;;5054196;28;20068;-66
2022/04/14 20:31:52;;;;;;;44.33;30.73;;;28.30;99.90;;;;;;5054386;28;20102;-61
2022/04/14 20:34:19;;;;;;;42.30;30.13;;;28.20;99.90;;;;;;5053906;28;20021;-62
2022/04/14 20:36:46;;;;;;;39.50;29.25;;;28.20;99.90;;;;;;5071020;28;20032;-63
2022/04/14 20:39:12;;;;;;;38.85;30.98;;;28.20;99.90;;;;;;5053766;28;20036;-64
2022/04/14 20:41:39;;;;;;;43.83;32.25;;;28.20;99.90;;;;;;5053816;28;20037;-66
2022/04/14 20:44:06;;;;;;;42.00;32.17;;;28.20;99.90;;;;;;5053860;28;20539;-63
2022/04/14 20:46:33;;;;;;;40.88;31.45;;;28.20;99.90;;;;;;5053975;28;20200;-62
2022/04/14 20:49:00;;;;;;;48.15;32.97;;;28.20;99.90;;;;;;5053649;28;20033;-63
2022/04/14 20:51:27;;;;;;;50.63;33.17;;;28.30;99.90;;;;;;5053602;28;20029;-64
2022/04/14 20:53:53;;;;;;;58.63;40.67;;;28.20;99.90;;;;;;5053701;28;20079;-63
2022/04/14 20:56:25;;;;;;;59.35;41.92;;;28.20;99.90;;;;;;5058608;28;20469;-64
2022/04/14 20:58:54;;;;;;;59.17;40.20;;;28.20;99.90;;;;;;5073507;28;20032;-63
2022/04/14 21:01:22;;;;;;;53.25;34.65;;;28.20;99.90;;;;;;5073797;28;20477;-63
2022/04/14 21:04:53;;;;;;;55.33;38.92;;;28.20;99.90;;;;;;5085708;27;20978;-61
2022/04/14 21:07:19;;;;;;;72.15;42.78;;;28.10;99.90;;;;;;5070880;28;20025;-61
2022/04/14 21:09:46;;;;;;;70.45;45.05;;;28.00;99.90;;;;;;5070866;28;20025;-61
2022/04/14 21:12:13;;;;;;;70.30;47.10;;;27.90;99.90;;;;;;5070594;28;20032;-62
2022/04/14 21:14:39;;;;;;;71.75;48.78;;;27.90;99.90;;;;;;5070299;28;20025;-61
2022/04/14 21:17:06;;;;;;;80.43;52.88;;;27.80;99.90;;;;;;5071915;28;20083;-62
2022/04/14 21:19:33;;;;;;;75.55;51.55;;;27.80;99.90;;;;;;5071223;28;20048;-62
2022/04/14 21:22:00;;;;;;;74.43;50.78;;;27.80;99.90;;;;;;5074354;28;20446;-60
2022/04/14 21:24:27;;;;;;;89.15;58.28;;;27.90;99.90;;;;;;5074158;28;20040;-60
2022/04/14 21:26:53;;;;;;;76.63;54.65;;;27.90;99.90;;;;;;5086362;28;20103;-62
2022/04/14 21:29:20;;;;;;;78.07;53.75;;;27.90;99.90;;;;;;5069991;28;20389;-62
2022/04/14 21:31:47;;;;;;;80.63;54.75;;;27.90;99.90;;;;;;5073655;28;20098;-60
2022/04/14 21:34:14;;;;;;;75.57;52.15;;;27.90;99.90;;;;;;5070499;28;20025;-61
2022/04/14 21:36:41;;;;;;;123.00;85.88;;;27.90;99.90;;;;;;5063702;28;20028;-64
2022/04/14 21:39:08;;;;;;;93.03;64.80;;;27.90;99.90;;;;;;5075755;28;20033;-63
2022/04/14 21:41:34;;;;;;;85.20;58.13;;;27.90;99.90;;;;;;5090589;28;20029;-62
2022/04/14 21:44:02;;;;;;;83.68;59.30;;;27.80;99.90;;;;;;5072830;28;20051;-62
2022/04/14 21:46:28;;;;;;;74.72;55.17;;;27.80;99.90;;;;;;5070083;28;20031;-62
2022/04/14 21:48:55;;;;;;;80.90;58.42;;;27.80;99.90;;;;;;5070294;28;20024;-62
2022/04/14 21:51:22;;;;;;;82.50;60.45;;;27.80;99.90;;;;;;5067439;28;20056;-63
2022/04/14 21:53:51;;;;;;;86.32;64.30;;;27.80;99.90;;;;;;5069391;28;20040;-62
2022/04/14 21:56:19;;;;;;;85.82;62.42;;;27.80;99.90;;;;;;5069230;28;20052;-64
2022/04/14 21:58:45;;;;;;;86.80;62.05;;;27.80;99.90;;;;;;5069389;28;20051;-62
2022/04/14 22:01:13;;;;;;;89.07;62.50;;;27.80;99.90;;;;;;5069352;28;20033;-61
2022/04/14 22:03:42;;;;;;;92.53;66.03;;;27.80;99.90;;;;;;5068194;28;20056;-62
2022/04/14 22:06:13;;;;;;;84.82;64.70;;;27.70;99.90;;;;;;5067880;28;20031;-62
2022/04/14 22:08:40;;;;;;;90.53;62.75;;;27.70;99.90;;;;;;5068084;28;20032;-64
2022/04/14 22:11:10;;;;;;;86.97;64.25;;;27.80;99.90;;;;;;5068277;28;20013;-65
2022/04/14 22:13:37;;;;;;;88.07;62.42;;;27.80;99.90;;;;;;5067613;28;20421;-63
2022/04/14 22:16:05;;;;;;;87.32;63.13;;;27.80;99.90;;;;;;5051895;28;20032;-63
2022/04/14 22:18:32;;;;;;;88.50;64.00;;;27.90;99.90;;;;;;5055020;28;20029;-61
2022/04/14 22:21:03;;;;;;;99.65;63.72;;;27.80;99.90;;;;;;5054377;28;20037;-63
2022/04/14 22:23:29;;;;;;;83.72;60.72;;;27.90;99.90;;;;;;5054430;28;20031;-62
2022/04/14 22:25:57;;;;;;;86.38;62.25;;;27.80;99.90;;;;;;5054142;28;20079;-62
2022/04/14 22:28:24;;;;;;;83.18;61.20;;;27.70;99.90;;;;;;5053894;28;20465;-62
2022/04/14 22:30:51;;;;;;;76.35;60.13;;;27.70;99.90;;;;;;5052883;28;20029;-63
2022/04/14 22:33:18;;;;;;;88.45;63.38;;;27.70;99.90;;;;;;5054004;28;20025;-62
2022/04/14 22:35:45;;;;;;;90.78;66.40;;;27.80;99.90;;;;;;5054306;28;20091;-63
2022/04/14 22:38:12;;;;;;;85.90;65.28;;;27.70;99.90;;;;;;5054889;28;20489;-62
2022/04/14 22:40:41;;;;;;;92.53;69.30;;;27.70;99.90;;;;;;5054914;28;20025;-62
2022/04/14 22:43:08;;;;;;;92.38;70.10;;;27.70;99.90;;;;;;5053098;28;20071;-62
2022/04/14 22:45:35;;;;;;;94.80;72.22;;;27.60;99.90;;;;;;5055167;28;20021;-63
2022/04/14 22:48:02;;;;;;;95.95;73.28;;;27.60;99.90;;;;;;5055237;28;20017;-61
2022/04/14 22:50:31;;;;;;;107.70;78.50;;;27.50;99.90;;;;;;5053940;28;20025;-61
2022/04/14 22:52:58;;;;;;;108.32;78.28;;;27.40;99.90;;;;;;5054747;28;20036;-62
2022/04/14 22:55:25;;;;;;;98.45;70.55;;;27.40;99.90;;;;;;5052937;28;20036;-62
2022/04/14 22:57:52;;;;;;;86.82;62.97;;;27.40;99.90;;;;;;5053442;28;20044;-63
2022/04/14 23:00:20;;;;;;;86.97;57.55;;;27.40;99.90;;;;;;5053944;28;20055;-63
2022/04/14 23:02:48;;;;;;;67.20;45.47;;;27.40;99.90;;;;;;5051398;28;20049;-64
2022/04/14 23:05:16;;;;;;;41.17;32.40;;;27.30;99.90;;;;;;5054395;28;20021;-63